Terminal Aerodrome Forecast
Issued by NWS Cheyenne, WY

Home | Current Version | Previous Version | Text Only | Print | Product List | Glossary On
Versions: 1 2 3 4 5 6 7 8 9 10 11 12 13 14 15 16 17 18 19 20 21 22 23 24 25 26 27 28 29 30 31 32
000
FTUS45 KCYS 050520
TAFCYS
TAF
KCYS 050520Z 0506/0606 27009KT P6SM SCT100
     FM051500 26012G23KT P6SM SCT060
     FM051900 28012G23KT P6SM VCTS BKN060CB
      TEMPO 0520/0524 VRB20G40KT 4SM TSRA BKN035CB
     FM060000 33013KT P6SM VCTS BKN080CB=

USA.gov is the U.S. government's official web portal to all federal, state and local government web resources and services.